This is the latest recevied weather packets stored in our database for station/object OE2ATN. If no packets are shown the sender has not sent any weather packets the latest 1 day(s).
| Time | Temp. | Humidity | Pressure | Rain* | Wind** | Luminosity | Snow |
|---|---|---|---|---|---|---|---|
| 1778015107 | 10° C | 72% | 1016.5 hPa | 0 mm | 0 m/s | - | - |
| 1778014807 | 10° C | 72% | 1016.6 hPa | 0 mm | 0.89 m/s, 23° | - | - |
| 1778014507 | 10.56° C | 70% | 1016.5 hPa | 0 mm | 0 m/s | - | - |
| 1778014206 | 10.56° C | 69% | 1016.5 hPa | 0 mm | 0 m/s | - | - |
| 1778013906 | 11.11° C | 68% | 1016.4 hPa | 0 mm | 0 m/s | - | - |
| 1778013607 | 11.67° C | 67% | 1016.3 hPa | 0 mm | 0 m/s | - | - |
| 1778013306 | 11.11° C | 68% | 1016.2 hPa | 0 mm | 0.45 m/s, 296° | - | - |
| 1778013006 | 11.11° C | 67% | 1016.1 hPa | 0 mm | 0.45 m/s, 285° | - | - |
| 1778012709 | 11.67° C | 66% | 1016.1 hPa | 0 mm | 0 m/s | - | - |
| 1778012407 | 11.67° C | 67% | 1016.1 hPa | 0 mm | 0.89 m/s, 0° | - | - |
| 1778012107 | 11.67° C | 66% | 1016 hPa | 0 mm | 0 m/s | - | - |
| 1778011806 | 12.22° C | 66% | 1015.9 hPa | 0 mm | 0.45 m/s, 310° | - | - |
| 1778011507 | 11.67° C | 67% | 1015.9 hPa | 0 mm | 0.45 m/s, 309° | - | - |
| 1778011207 | 11.67° C | 68% | 1015.9 hPa | 0 mm | 0.45 m/s, 299° | - | - |
| 1778010907 | 11.67° C | 68% | 1015.8 hPa | 0 mm | 0 m/s | - | - |
| 1778010607 | 11.67° C | 68% | 1015.8 hPa | 0 mm | 1.34 m/s, 295° | - | - |
| 1778010306 | 11.67° C | 69% | 1015.7 hPa | 0 mm | 0.45 m/s, 303° | - | - |
| 1778010007 | 11.67° C | 66% | 1015.6 hPa | 0 mm | 0.45 m/s, 265° | - | - |
| 1778009707 | 12.22° C | 66% | 1015.4 hPa | 0 mm | 0 m/s | - | - |
| 1778009407 | 12.22° C | 64% | 1015.3 hPa | 0 mm | 0.45 m/s, 307° | - | - |
| 1778009108 | 12.78° C | 63% | 1015.2 hPa | 0 mm | 0 m/s | - | - |
| 1778008806 | 13.33° C | 62% | 1015.1 hPa | 0 mm | 0 m/s | - | - |
| 1778008506 | 13.33° C | 62% | 1015.2 hPa | 0 mm | 0.45 m/s, 316° | - | - |
| 1778008206 | 13.33° C | 63% | 1015.1 hPa | 0 mm | 0.45 m/s, 10° | - | - |
| 1778007906 | 13.33° C | 62% | 1015 hPa | 0 mm | 1.34 m/s, 286° | - | - |
* Rain latest hour (hover to see other rain measurements)
** Current wind speed in m/s (hover to see current wind gust speed)